createdAt,value
2018-05-03T00:00:47.809Z,63.49
2018-05-03T00:03:15.988Z,63.28
2018-05-03T00:05:44.162Z,63.40
2018-05-03T00:08:12.318Z,63.31
2018-05-03T00:10:40.491Z,62.98
2018-05-03T00:13:08.677Z,62.10
2018-05-03T00:15:37.041Z,61.27
2018-05-03T00:18:05.212Z,61.31
2018-05-03T00:20:33.391Z,61.53
2018-05-03T00:23:01.585Z,61.69
2018-05-03T00:25:29.789Z,61.21
2018-05-03T00:27:57.931Z,61.36
2018-05-03T00:30:26.103Z,61.28
2018-05-03T00:32:54.273Z,61.57
2018-05-03T00:35:22.476Z,61.79
2018-05-03T00:37:50.636Z,62.57
2018-05-03T00:40:18.813Z,62.70
2018-05-03T00:42:46.963Z,62.82
2018-05-03T00:45:15.142Z,63.38
2018-05-03T00:47:43.316Z,63.84
2018-05-03T00:50:11.469Z,64.04
2018-05-03T00:52:39.663Z,64.22
2018-05-03T00:55:07.855Z,64.73
2018-05-03T00:57:36.055Z,64.89
2018-05-03T01:00:04.204Z,65.11
2018-05-03T01:02:32.366Z,65.26
2018-05-03T01:05:00.524Z,65.70
2018-05-03T01:07:28.699Z,65.74
2018-05-03T01:09:57.179Z,65.89
2018-05-03T01:12:25.350Z,66.26
2018-05-03T01:14:53.543Z,66.44
2018-05-03T01:17:21.690Z,66.58
2018-05-03T01:19:49.858Z,66.73
2018-05-03T01:22:18.021Z,66.66
2018-05-03T01:24:46.225Z,66.56
2018-05-03T01:27:14.384Z,66.61
2018-05-03T01:29:42.553Z,67.18
2018-05-03T01:32:10.744Z,67.10
2018-05-03T01:34:38.902Z,67.27
2018-05-03T01:37:07.074Z,67.48
2018-05-03T01:39:35.570Z,67.58
2018-05-03T01:42:03.774Z,67.78
2018-05-03T01:44:31.922Z,67.72
2018-05-03T01:47:02.551Z,67.92
2018-05-03T01:49:30.723Z,67.40
2018-05-03T01:51:58.905Z,67.26
2018-05-03T01:54:27.337Z,67.44
2018-05-03T01:56:55.484Z,67.78
2018-05-03T01:59:23.650Z,67.79
2018-05-03T02:01:51.830Z,68.56
2018-05-03T02:04:19.984Z,68.76
2018-05-03T02:06:48.205Z,68.98
2018-05-03T02:09:16.333Z,69.14
2018-05-03T02:11:45.329Z,69.09
2018-05-03T02:14:13.503Z,69.00
2018-05-03T02:16:41.676Z,68.94
2018-05-03T02:19:10.172Z,68.56
2018-05-03T02:21:38.313Z,69.11
2018-05-03T02:24:06.489Z,68.78
2018-05-03T02:26:34.639Z,68.61
2018-05-03T02:29:02.831Z,69.33
2018-05-03T02:31:30.985Z,69.17
2018-05-03T02:33:59.137Z,69.70
2018-05-03T02:36:27.337Z,69.46
2018-05-03T02:38:55.522Z,69.02
2018-05-03T02:41:23.707Z,68.99
2018-05-03T02:43:52.698Z,68.87
2018-05-03T02:46:20.881Z,68.51
2018-05-03T02:48:49.059Z,68.40
2018-05-03T02:51:17.222Z,68.49
2018-05-03T02:53:45.394Z,68.36
2018-05-03T02:56:13.585Z,68.10
2018-05-03T02:59:26.663Z,69.10
2018-05-03T03:02:13.968Z,69.95
2018-05-03T03:05:42.073Z,69.84
2018-05-03T03:08:29.508Z,69.44
2018-05-03T03:11:22.768Z,69.46
2018-05-03T03:14:16.599Z,69.48
2018-05-03T03:17:40.378Z,69.44
2018-05-03T03:20:47.431Z,69.34
2018-05-03T03:24:11.473Z,68.85
2018-05-03T03:27:40.347Z,68.63
2018-05-03T03:31:37.081Z,68.92
2018-05-03T03:34:05.858Z,68.57
2018-05-03T03:37:17.715Z,69.05
2018-05-03T03:40:25.378Z,68.67
2018-05-03T03:43:05.313Z,68.75
2018-05-03T03:45:33.561Z,68.38
2018-05-03T03:48:01.623Z,68.56
2018-05-03T03:50:29.792Z,68.48
2018-05-03T03:52:57.963Z,68.76
2018-05-03T03:55:26.142Z,67.77
2018-05-03T03:57:54.511Z,68.12
2018-05-03T04:00:22.653Z,68.65
2018-05-03T04:02:50.823Z,68.63
2018-05-03T04:05:18.987Z,68.71
2018-05-03T04:07:47.165Z,68.72
2018-05-03T04:10:15.335Z,68.82
2018-05-03T04:12:43.522Z,68.66
2018-05-03T04:15:11.716Z,68.39
2018-05-03T04:18:17.497Z,68.15
2018-05-03T04:21:41.626Z,68.47
2018-05-03T04:24:49.953Z,68.13
2018-05-03T04:27:18.156Z,67.86
2018-05-03T04:29:46.318Z,68.27
2018-05-03T04:32:14.495Z,67.97
2018-05-03T04:34:42.655Z,68.05
2018-05-03T04:37:10.850Z,68.26
2018-05-03T04:39:39.020Z,67.69
2018-05-03T04:42:07.198Z,67.65
2018-05-03T04:44:35.376Z,67.70
2018-05-03T04:47:03.633Z,67.43
2018-05-03T04:49:31.700Z,67.51
2018-05-03T04:51:59.879Z,67.52
2018-05-03T04:54:28.047Z,67.16
2018-05-03T04:56:56.219Z,67.34
2018-05-03T04:59:24.394Z,67.34
2018-05-03T05:01:52.568Z,67.20
2018-05-03T05:04:20.719Z,67.22
2018-05-03T05:06:48.891Z,67.25
2018-05-03T05:09:17.025Z,67.21
2018-05-03T05:11:45.179Z,66.94
2018-05-03T05:14:13.353Z,66.89
2018-05-03T05:16:41.508Z,67.17
2018-05-03T05:19:09.705Z,67.14
2018-05-03T05:21:37.840Z,66.96
2018-05-03T05:24:06.089Z,66.70
2018-05-03T05:26:34.212Z,66.74
2018-05-03T05:29:02.700Z,66.98
2018-05-03T05:31:30.879Z,66.79
2018-05-03T05:33:59.049Z,68.40
2018-05-03T05:36:27.224Z,69.27
2018-05-03T05:38:55.548Z,69.45
2018-05-03T05:41:23.577Z,69.54
2018-05-03T05:43:51.928Z,69.76
2018-05-03T05:46:20.128Z,70.15
2018-05-03T05:48:48.293Z,70.02
2018-05-03T05:51:16.521Z,69.70
2018-05-03T05:53:44.648Z,69.34
2018-05-03T05:56:12.816Z,69.25
2018-05-03T05:58:40.969Z,69.08
2018-05-03T06:01:09.160Z,68.48
2018-05-03T06:03:37.296Z,68.13
2018-05-03T06:06:05.473Z,67.28
2018-05-03T06:08:33.635Z,66.58
2018-05-03T06:11:01.817Z,65.71
2018-05-03T06:13:29.989Z,65.53
2018-05-03T06:15:58.185Z,64.65
2018-05-03T06:18:26.394Z,64.25
2018-05-03T06:20:54.570Z,63.48
2018-05-03T06:23:22.721Z,63.24
2018-05-03T06:25:50.902Z,62.27
2018-05-03T06:28:19.082Z,60.60
2018-05-03T06:30:47.268Z,59.08
2018-05-03T06:33:15.487Z,57.79
2018-05-03T06:35:43.675Z,55.93
2018-05-03T06:38:11.861Z,54.76
2018-05-03T06:40:40.616Z,55.01
2018-05-03T06:43:08.823Z,53.39
2018-05-03T06:45:36.997Z,49.32
2018-05-03T06:48:05.178Z,43.69
2018-05-03T06:50:33.608Z,38.25
2018-05-03T06:53:01.874Z,34.23
2018-05-03T06:55:29.986Z,30.74
2018-05-03T06:57:58.527Z,28.77
2018-05-03T07:00:26.693Z,27.08
2018-05-03T07:02:54.863Z,26.39
2018-05-03T07:05:23.029Z,24.76
2018-05-03T07:07:51.199Z,23.23
2018-05-03T07:10:19.378Z,22.22
2018-05-03T07:12:47.562Z,21.31
2018-05-03T07:15:15.722Z,20.90
2018-05-03T07:17:45.587Z,20.72
2018-05-03T07:20:13.956Z,19.86
2018-05-03T07:22:42.377Z,19.46
2018-05-03T07:25:13.082Z,19.69
2018-05-03T07:27:39.271Z,19.10
2018-05-03T07:30:07.569Z,18.44
2018-05-03T07:32:35.856Z,18.15
2018-05-03T07:35:04.328Z,17.51
2018-05-03T07:37:32.463Z,17.07
2018-05-03T07:40:01.049Z,16.86
2018-05-03T07:42:32.218Z,16.00
2018-05-03T07:45:00.435Z,14.93
2018-05-03T07:47:28.622Z,15.46
2018-05-03T07:49:56.808Z,15.82
2018-05-03T07:52:24.962Z,15.84
2018-05-03T07:54:53.133Z,15.77
2018-05-03T07:57:21.517Z,15.46
2018-05-03T07:59:49.695Z,16.08
2018-05-03T08:02:17.864Z,15.53
2018-05-03T08:04:46.064Z,15.49
2018-05-03T08:07:14.223Z,15.09
2018-05-03T08:09:42.402Z,15.97
2018-05-03T08:12:10.559Z,15.86
2018-05-03T08:14:38.787Z,14.43
2018-05-03T08:17:06.981Z,14.66
2018-05-03T08:19:35.375Z,14.51
2018-05-03T08:22:03.573Z,14.22
2018-05-03T08:24:31.742Z,14.23
2018-05-03T08:27:00.303Z,13.33
2018-05-03T08:29:28.464Z,13.10
2018-05-03T08:31:56.633Z,12.86
2018-05-03T08:34:24.827Z,12.43
2018-05-03T08:36:53.008Z,12.56
2018-05-03T08:39:21.192Z,12.58
2018-05-03T08:41:49.383Z,12.32
2018-05-03T08:44:17.524Z,13.23
2018-05-03T08:46:45.698Z,12.88
2018-05-03T08:49:13.888Z,12.24
2018-05-03T08:51:42.039Z,12.87
2018-05-03T08:54:10.220Z,12.76
2018-05-03T08:56:38.388Z,13.67
2018-05-03T08:59:07.130Z,13.01
2018-05-03T09:01:35.395Z,12.19
2018-05-03T09:04:03.557Z,11.77
2018-05-03T09:06:31.725Z,13.00
2018-05-03T09:08:59.990Z,13.32
2018-05-03T09:11:28.179Z,14.69
2018-05-03T09:13:56.484Z,13.69
2018-05-03T09:16:24.685Z,12.74
2018-05-03T09:18:54.887Z,14.54
2018-05-03T09:21:23.017Z,12.84
2018-05-03T09:23:51.309Z,14.37
2018-05-03T09:26:19.506Z,13.72
2018-05-03T09:28:47.733Z,13.20
2018-05-03T09:31:15.891Z,13.11
2018-05-03T09:33:44.053Z,12.92
2018-05-03T09:36:12.271Z,12.48
2018-05-03T09:38:40.493Z,12.58
2018-05-03T09:41:08.722Z,13.20
2018-05-03T09:43:37.925Z,13.41
2018-05-03T09:46:08.962Z,12.08
2018-05-03T09:48:37.119Z,12.01
2018-05-03T09:51:05.310Z,12.01
2018-05-03T09:53:33.547Z,12.01
2018-05-03T09:56:01.740Z,12.03
2018-05-03T09:58:29.915Z,12.72
2018-05-03T10:00:58.110Z,12.20
2018-05-03T10:03:26.315Z,11.51
2018-05-03T10:05:54.532Z,12.56
2018-05-03T10:08:25.903Z,12.54
2018-05-03T10:10:54.106Z,12.34
2018-05-03T10:13:22.313Z,12.10
2018-05-03T10:15:50.472Z,12.20
2018-05-03T10:18:18.661Z,13.84
2018-05-03T10:20:46.846Z,13.06
2018-05-03T10:23:15.059Z,13.90
2018-05-03T10:25:43.254Z,13.56
2018-05-03T10:28:11.487Z,12.00
2018-05-03T10:30:41.327Z,11.73
2018-05-03T10:33:09.531Z,12.67
2018-05-03T10:35:37.793Z,13.16
2018-05-03T10:38:05.914Z,13.73
2018-05-03T10:40:34.699Z,12.66
2018-05-03T10:43:03.015Z,13.26
2018-05-03T10:45:31.195Z,12.39
2018-05-03T10:48:01.947Z,13.18
2018-05-03T10:50:30.135Z,12.97
2018-05-03T10:52:58.353Z,14.33
2018-05-03T10:55:27.133Z,12.51
2018-05-03T10:57:55.359Z,13.83
2018-05-03T11:00:23.555Z,12.19
2018-05-03T11:02:51.783Z,13.27
2018-05-03T11:05:20.522Z,13.07
2018-05-03T11:07:48.520Z,12.58
2018-05-03T11:10:16.727Z,13.14
2018-05-03T11:12:44.929Z,13.32
2018-05-03T11:15:13.655Z,13.32
2018-05-03T11:17:41.838Z,12.35
2018-05-03T11:20:10.038Z,12.53
2018-05-03T11:22:38.310Z,13.00
2018-05-03T11:25:06.511Z,13.08
2018-05-03T11:27:34.674Z,12.28
2018-05-03T11:30:02.927Z,12.23
2018-05-03T11:32:31.096Z,12.08
2018-05-03T11:34:59.314Z,11.87
2018-05-03T11:37:27.543Z,12.35
2018-05-03T11:39:55.715Z,11.48
2018-05-03T11:42:23.903Z,14.11
2018-05-03T11:44:52.095Z,13.10
2018-05-03T11:47:20.260Z,15.95
2018-05-03T11:49:48.576Z,16.15
2018-05-03T11:52:16.713Z,17.08
2018-05-03T11:54:44.885Z,17.29
2018-05-03T11:57:13.080Z,16.14
2018-05-03T11:59:41.340Z,19.20
2018-05-03T12:02:09.689Z,19.18
2018-05-03T12:04:37.834Z,19.74
2018-05-03T12:07:06.042Z,18.69
2018-05-03T12:09:34.219Z,17.60
2018-05-03T12:12:02.410Z,19.45
2018-05-03T12:14:30.596Z,19.32
2018-05-03T12:16:58.828Z,19.07
2018-05-03T12:19:27.063Z,19.76
2018-05-03T12:21:55.202Z,18.15
2018-05-03T12:24:23.469Z,20.36
2018-05-03T12:26:51.627Z,19.74
2018-05-03T12:29:19.906Z,20.97
2018-05-03T12:31:48.120Z,20.20
2018-05-03T12:34:16.302Z,22.34
2018-05-03T12:36:44.467Z,22.30
2018-05-03T12:39:12.668Z,22.54
2018-05-03T12:41:40.847Z,21.60
2018-05-03T12:44:09.069Z,22.89
2018-05-03T12:46:37.242Z,23.79
2018-05-03T12:49:05.461Z,23.42
2018-05-03T12:51:33.626Z,24.24
2018-05-03T12:54:01.781Z,21.02
2018-05-03T12:56:29.942Z,22.71
2018-05-03T12:58:58.123Z,22.96
2018-05-03T13:01:26.693Z,22.60
2018-05-03T13:03:54.888Z,23.66
2018-05-03T13:06:23.088Z,23.55
2018-05-03T13:08:51.297Z,25.30
2018-05-03T13:11:19.492Z,26.32
2018-05-03T13:13:47.711Z,25.22
2018-05-03T13:16:15.917Z,25.08
2018-05-03T13:18:44.112Z,25.41
2018-05-03T13:21:12.377Z,25.43
2018-05-03T13:23:40.574Z,25.20
2018-05-03T13:26:08.744Z,24.93
2018-05-03T13:28:36.927Z,25.97
2018-05-03T13:31:05.111Z,24.27
2018-05-03T13:33:33.343Z,23.50
2018-05-03T13:36:01.492Z,24.64
2018-05-03T13:38:29.650Z,24.99
2018-05-03T13:40:57.924Z,27.37
2018-05-03T13:43:26.046Z,26.95
2018-05-03T13:45:54.244Z,26.41
2018-05-03T13:48:22.436Z,27.21
2018-05-03T13:50:50.611Z,26.03
2018-05-03T13:53:18.943Z,26.97
2018-05-03T13:55:47.049Z,27.17
2018-05-03T13:58:15.219Z,27.20
2018-05-03T14:00:43.512Z,27.88
2018-05-03T14:03:11.690Z,27.57
2018-05-03T14:05:39.874Z,27.46
2018-05-03T14:08:08.043Z,30.15
2018-05-03T14:10:36.311Z,28.93
2018-05-03T14:13:04.542Z,26.12
2018-05-03T14:15:32.705Z,25.88
2018-05-03T14:18:00.891Z,27.25
2018-05-03T14:20:29.173Z,25.43
2018-05-03T14:22:57.264Z,25.76
2018-05-03T14:25:25.434Z,24.95
2018-05-03T14:27:53.612Z,24.28
2018-05-03T14:30:21.787Z,23.71
2018-05-03T14:32:49.972Z,24.51
2018-05-03T14:35:18.151Z,25.23
2018-05-03T14:37:46.358Z,23.74
2018-05-03T14:40:14.531Z,24.34
2018-05-03T14:42:42.747Z,24.50
2018-05-03T14:45:10.925Z,22.41
2018-05-03T14:47:39.102Z,24.51
2018-05-03T14:50:07.304Z,23.75
2018-05-03T14:52:35.461Z,25.35
2018-05-03T14:55:03.629Z,25.45
2018-05-03T14:57:31.826Z,25.91
2018-05-03T14:59:59.973Z,25.38
2018-05-03T15:02:28.140Z,23.71
2018-05-03T15:04:56.317Z,24.98
2018-05-03T15:07:24.505Z,24.88
2018-05-03T15:09:52.713Z,24.56
2018-05-03T15:12:21.633Z,24.35
2018-05-03T15:14:49.843Z,24.56
2018-05-03T15:17:18.007Z,24.40
2018-05-03T15:19:46.178Z,28.02
2018-05-03T15:22:14.339Z,28.60
2018-05-03T15:24:42.680Z,27.56
2018-05-03T15:27:10.848Z,29.64
2018-05-03T15:29:39.021Z,28.67
2018-05-03T15:32:07.222Z,29.50
2018-05-03T15:34:35.405Z,29.99
2018-05-03T15:37:03.588Z,30.75
2018-05-03T15:39:31.764Z,29.38
2018-05-03T15:41:59.932Z,31.11
2018-05-03T15:44:28.111Z,30.64
2018-05-03T15:46:56.300Z,30.47
2018-05-03T15:49:24.462Z,31.50
2018-05-03T15:51:52.635Z,32.27
2018-05-03T15:54:20.792Z,30.47
2018-05-03T15:56:48.988Z,31.30
2018-05-03T15:59:17.170Z,32.34
2018-05-03T16:01:45.353Z,31.24
2018-05-03T16:04:13.501Z,32.54
2018-05-03T16:06:41.678Z,31.21
2018-05-03T16:09:09.840Z,31.89
2018-05-03T16:11:38.022Z,30.71
2018-05-03T16:14:06.218Z,31.24
2018-05-03T16:16:34.375Z,30.70
2018-05-03T16:19:02.618Z,30.44
2018-05-03T16:21:30.742Z,32.38
2018-05-03T16:23:58.916Z,31.96
2018-05-03T16:26:27.090Z,30.94
2018-05-03T16:28:55.261Z,30.66
2018-05-03T16:31:23.422Z,31.65
2018-05-03T16:33:51.616Z,32.45
2018-05-03T16:36:19.809Z,32.55
2018-05-03T16:38:47.959Z,32.60
2018-05-03T16:41:16.154Z,33.71
2018-05-03T16:43:44.334Z,33.64
2018-05-03T16:46:12.485Z,33.66
2018-05-03T16:48:40.728Z,34.36
2018-05-03T16:51:08.910Z,34.65
2018-05-03T16:53:37.108Z,34.64
2018-05-03T16:56:05.272Z,35.31
2018-05-03T16:58:33.442Z,34.54
2018-05-03T17:01:01.632Z,35.46
2018-05-03T17:03:29.783Z,35.66
2018-05-03T17:05:57.975Z,35.20
2018-05-03T17:08:26.256Z,35.56
2018-05-03T17:10:54.439Z,36.49
2018-05-03T17:13:22.584Z,36.25
2018-05-03T17:15:50.789Z,36.41
2018-05-03T17:18:18.988Z,36.70
2018-05-03T17:20:47.161Z,36.07
2018-05-03T17:23:15.337Z,36.41
2018-05-03T17:25:43.509Z,36.68
2018-05-03T17:28:11.711Z,37.11
2018-05-03T17:30:39.888Z,37.06
2018-05-03T17:33:08.060Z,37.78
2018-05-03T17:35:36.231Z,37.56
2018-05-03T17:38:04.430Z,36.89
2018-05-03T17:40:32.635Z,36.83
2018-05-03T17:43:00.873Z,37.06
2018-05-03T17:45:29.064Z,36.29
2018-05-03T17:47:57.246Z,36.09
2018-05-03T17:50:25.445Z,35.63
2018-05-03T17:52:53.621Z,34.84
2018-05-03T17:55:21.796Z,35.25
2018-05-03T17:57:49.970Z,35.08
2018-05-03T18:00:18.131Z,34.62
2018-05-03T18:02:46.362Z,34.92
2018-05-03T18:05:14.564Z,34.16
2018-05-03T18:07:42.719Z,35.11
2018-05-03T18:10:10.880Z,34.88
2018-05-03T18:12:39.091Z,33.70
2018-05-03T18:15:07.263Z,33.21
2018-05-03T18:17:35.459Z,31.85
2018-05-03T18:20:03.674Z,32.16
2018-05-03T18:22:31.886Z,32.83
2018-05-03T18:25:00.066Z,31.85
2018-05-03T18:27:28.246Z,32.06
2018-05-03T18:29:56.401Z,32.60
2018-05-03T18:32:24.574Z,32.28
2018-05-03T18:34:52.732Z,32.16
2018-05-03T18:37:20.899Z,33.21
2018-05-03T18:39:49.066Z,33.04
2018-05-03T18:42:17.197Z,33.09
2018-05-03T18:44:45.404Z,31.51
2018-05-03T18:47:13.564Z,32.03
2018-05-03T18:49:41.818Z,32.17
2018-05-03T18:52:10.005Z,32.81
2018-05-03T18:54:38.148Z,34.26
2018-05-03T18:57:06.234Z,35.06
2018-05-03T18:59:34.456Z,34.47
2018-05-03T19:02:02.573Z,34.55
2018-05-03T19:04:30.737Z,33.80
2018-05-03T19:06:58.933Z,34.36
2018-05-03T19:09:27.123Z,34.59
2018-05-03T19:11:55.484Z,35.92
2018-05-03T19:14:23.535Z,35.17
2018-05-03T19:16:51.732Z,35.08
2018-05-03T19:19:19.896Z,34.83
2018-05-03T19:21:48.085Z,35.10
2018-05-03T19:24:16.300Z,34.58
2018-05-03T19:26:44.481Z,35.09
2018-05-03T19:29:12.648Z,36.37
2018-05-03T19:31:40.832Z,36.30
2018-05-03T19:34:09.005Z,36.88
2018-05-03T19:36:37.192Z,36.71
2018-05-03T19:39:05.689Z,37.33
2018-05-03T19:41:33.824Z,37.80
2018-05-03T19:44:01.968Z,38.32
2018-05-03T19:46:30.142Z,39.43
2018-05-03T19:48:58.318Z,38.92
2018-05-03T19:51:26.519Z,38.85
2018-05-03T19:53:54.708Z,39.08
2018-05-03T19:56:22.898Z,40.33
2018-05-03T19:58:51.097Z,41.43
2018-05-03T20:01:19.242Z,41.45
2018-05-03T20:03:47.446Z,41.56
2018-05-03T20:06:15.602Z,42.02
2018-05-03T20:08:43.802Z,42.52
2018-05-03T20:11:11.956Z,42.80
2018-05-03T20:13:40.140Z,42.22
2018-05-03T20:16:08.318Z,43.19
2018-05-03T20:18:36.498Z,42.48
2018-05-03T20:21:04.694Z,43.51
2018-05-03T20:23:32.860Z,44.05
2018-05-03T20:26:01.022Z,44.35
2018-05-03T20:28:29.164Z,43.55
2018-05-03T20:30:57.354Z,44.20
2018-05-03T20:33:25.548Z,44.51
2018-05-03T20:35:53.727Z,45.75
2018-05-03T20:38:21.922Z,45.53
2018-05-03T20:40:50.092Z,45.64
2018-05-03T20:43:18.270Z,45.57
2018-05-03T20:45:46.435Z,46.05
2018-05-03T20:48:14.612Z,46.37
2018-05-03T20:50:42.800Z,47.01
2018-05-03T20:53:10.973Z,47.65
2018-05-03T20:55:39.166Z,47.61
2018-05-03T20:58:07.305Z,48.29
2018-05-03T21:00:35.467Z,48.82
2018-05-03T21:03:03.655Z,49.40
2018-05-03T21:05:31.809Z,49.42
2018-05-03T21:07:59.986Z,49.74
2018-05-03T21:10:28.150Z,49.66
2018-05-03T21:12:56.342Z,49.64
2018-05-03T21:15:24.506Z,50.09
2018-05-03T21:17:52.710Z,50.64
2018-05-03T21:20:20.969Z,51.08
2018-05-03T21:22:49.133Z,52.33
2018-05-03T21:25:17.449Z,52.80
2018-05-03T21:27:45.634Z,52.27
2018-05-03T21:30:13.832Z,52.57
2018-05-03T21:32:42.006Z,52.67
2018-05-03T21:35:10.163Z,52.90
2018-05-03T21:37:38.335Z,53.08
2018-05-03T21:40:06.534Z,52.92
2018-05-03T21:42:34.706Z,53.25
2018-05-03T21:45:02.882Z,53.46
2018-05-03T21:47:31.043Z,53.84
2018-05-03T21:49:59.225Z,53.90
2018-05-03T21:52:27.415Z,54.16
2018-05-03T21:54:55.559Z,54.36
2018-05-03T21:57:23.741Z,54.34
2018-05-03T21:59:51.924Z,54.75
2018-05-03T22:02:20.062Z,54.66
2018-05-03T22:04:48.244Z,54.88
2018-05-03T22:07:16.415Z,55.32
2018-05-03T22:09:44.601Z,55.20
2018-05-03T22:12:12.774Z,55.65
2018-05-03T22:14:40.930Z,56.20
2018-05-03T22:17:09.122Z,56.36
2018-05-03T22:19:37.295Z,56.44
2018-05-03T22:22:05.477Z,56.44
2018-05-03T22:24:33.646Z,56.38
2018-05-03T22:27:01.962Z,56.71
2018-05-03T22:29:30.165Z,56.64
2018-05-03T22:31:58.370Z,56.68
2018-05-03T22:34:26.520Z,56.64
2018-05-03T22:36:54.716Z,56.98
2018-05-03T22:39:22.898Z,56.87
2018-05-03T22:41:51.078Z,56.44
2018-05-03T22:44:19.243Z,57.02
2018-05-03T22:46:47.425Z,57.20
2018-05-03T22:49:15.615Z,57.69
2018-05-03T22:51:43.814Z,57.74
2018-05-03T22:54:12.015Z,58.15
2018-05-03T22:56:40.210Z,58.66
2018-05-03T22:59:08.409Z,58.59
2018-05-03T23:01:36.598Z,58.44
2018-05-03T23:04:04.810Z,59.13
2018-05-03T23:06:32.956Z,59.38
2018-05-03T23:09:01.129Z,59.46
2018-05-03T23:11:29.335Z,58.82
2018-05-03T23:13:57.484Z,59.60
2018-05-03T23:16:25.695Z,59.93
2018-05-03T23:18:53.856Z,59.93
2018-05-03T23:21:22.064Z,60.18
2018-05-03T23:23:50.285Z,60.61
2018-05-03T23:26:18.459Z,60.86
2018-05-03T23:28:46.875Z,61.34
2018-05-03T23:31:15.052Z,61.25
2018-05-03T23:33:43.215Z,61.29
2018-05-03T23:36:11.361Z,61.42
2018-05-03T23:38:39.568Z,61.39
2018-05-03T23:41:07.744Z,61.17
2018-05-03T23:43:35.912Z,61.28
2018-05-03T23:46:04.123Z,61.59
2018-05-03T23:48:32.278Z,61.67
2018-05-03T23:51:00.460Z,61.33
2018-05-03T23:53:28.646Z,61.29
2018-05-03T23:55:56.803Z,61.79
2018-05-03T23:58:24.979Z,61.61
